sensor_id;sensor_type;location;lat;lon;timestamp;pressure;altitude;pressure_sealevel;temperature
11424;BMP180;5768;51.476;7.210;2023-08-17T00:04:40;100619.00;;;22.00
11424;BMP180;5768;51.476;7.210;2023-08-17T00:09:43;100618.00;;;22.00
11424;BMP180;5768;51.476;7.210;2023-08-17T00:14:46;100609.00;;;22.00
11424;BMP180;5768;51.476;7.210;2023-08-17T00:19:49;100617.00;;;22.00
11424;BMP180;5768;51.476;7.210;2023-08-17T00:24:52;100624.00;;;22.00
11424;BMP180;5768;51.476;7.210;2023-08-17T00:29:55;100621.00;;;22.00
11424;BMP180;5768;51.476;7.210;2023-08-17T00:34:58;100615.00;;;22.00
11424;BMP180;5768;51.476;7.210;2023-08-17T00:40:00;100616.00;;;22.00
11424;BMP180;5768;51.476;7.210;2023-08-17T00:45:05;100624.00;;;21.90
11424;BMP180;5768;51.476;7.210;2023-08-17T00:50:08;100611.00;;;21.90
11424;BMP180;5768;51.476;7.210;2023-08-17T00:55:12;100626.00;;;21.80
11424;BMP180;5768;51.476;7.210;2023-08-17T01:00:16;100637.00;;;21.80
11424;BMP180;5768;51.476;7.210;2023-08-17T01:05:18;100627.00;;;21.90
11424;BMP180;5768;51.476;7.210;2023-08-17T01:10:22;100624.00;;;21.90
11424;BMP180;5768;51.476;7.210;2023-08-17T01:15:35;100601.00;;;21.80
11424;BMP180;5768;51.476;7.210;2023-08-17T01:20:38;100609.00;;;21.80
11424;BMP180;5768;51.476;7.210;2023-08-17T01:25:42;100597.00;;;21.80
11424;BMP180;5768;51.476;7.210;2023-08-17T01:30:52;100606.00;;;21.70
11424;BMP180;5768;51.476;7.210;2023-08-17T01:36:05;100609.00;;;21.70
11424;BMP180;5768;51.476;7.210;2023-08-17T01:41:11;100579.00;;;21.70
11424;BMP180;5768;51.476;7.210;2023-08-17T01:46:17;100565.00;;;21.70
11424;BMP180;5768;51.476;7.210;2023-08-17T01:51:20;100561.00;;;21.60
11424;BMP180;5768;51.476;7.210;2023-08-17T01:56:24;100566.00;;;21.60
11424;BMP180;5768;51.476;7.210;2023-08-17T02:01:26;100556.00;;;21.50
11424;BMP180;5768;51.476;7.210;2023-08-17T02:06:29;100551.00;;;21.50
11424;BMP180;5768;51.476;7.210;2023-08-17T02:11:33;100556.00;;;21.50
11424;BMP180;5768;51.476;7.210;2023-08-17T02:16:35;100552.00;;;21.50
11424;BMP180;5768;51.476;7.210;2023-08-17T02:21:37;100558.00;;;21.50
11424;BMP180;5768;51.476;7.210;2023-08-17T02:26:41;100552.00;;;21.50
11424;BMP180;5768;51.476;7.210;2023-08-17T02:31:43;100546.00;;;21.50
11424;BMP180;5768;51.476;7.210;2023-08-17T02:36:45;100543.00;;;21.50
11424;BMP180;5768;51.476;7.210;2023-08-17T02:41:49;100539.00;;;21.50
11424;BMP180;5768;51.476;7.210;2023-08-17T02:46:51;100545.00;;;21.60
11424;BMP180;5768;51.476;7.210;2023-08-17T02:51:54;100555.00;;;21.60
11424;BMP180;5768;51.476;7.210;2023-08-17T02:56:58;100559.00;;;21.60
11424;BMP180;5768;51.476;7.210;2023-08-17T03:02:00;100563.00;;;21.70
11424;BMP180;5768;51.476;7.210;2023-08-17T03:07:03;100567.00;;;21.70
11424;BMP180;5768;51.476;7.210;2023-08-17T03:12:07;100564.00;;;21.60
11424;BMP180;5768;51.476;7.210;2023-08-17T03:17:09;100555.00;;;21.60
11424;BMP180;5768;51.476;7.210;2023-08-17T03:22:11;100554.00;;;21.50
11424;BMP180;5768;51.476;7.210;2023-08-17T03:27:15;100551.00;;;21.50
11424;BMP180;5768;51.476;7.210;2023-08-17T03:32:17;100554.00;;;21.50
11424;BMP180;5768;51.476;7.210;2023-08-17T03:37:19;100566.00;;;21.50
11424;BMP180;5768;51.476;7.210;2023-08-17T03:42:23;100565.00;;;21.50
11424;BMP180;5768;51.476;7.210;2023-08-17T03:47:25;100556.00;;;21.40
11424;BMP180;5768;51.476;7.210;2023-08-17T03:52:28;100556.00;;;21.40
11424;BMP180;5768;51.476;7.210;2023-08-17T03:57:31;100545.00;;;21.30
11424;BMP180;5768;51.476;7.210;2023-08-17T04:02:33;100551.00;;;21.30
11424;BMP180;5768;51.476;7.210;2023-08-17T04:07:36;100548.00;;;21.40
11424;BMP180;5768;51.476;7.210;2023-08-17T04:12:40;100552.00;;;21.40
11424;BMP180;5768;51.476;7.210;2023-08-17T04:17:42;100560.00;;;21.40
11424;BMP180;5768;51.476;7.210;2023-08-17T04:22:45;100556.00;;;21.40
11424;BMP180;5768;51.476;7.210;2023-08-17T04:27:48;100564.00;;;21.40
11424;BMP180;5768;51.476;7.210;2023-08-17T04:32:51;100562.00;;;21.40
11424;BMP180;5768;51.476;7.210;2023-08-17T04:37:54;100564.00;;;21.40
11424;BMP180;5768;51.476;7.210;2023-08-17T04:42:58;100573.00;;;21.40
11424;BMP180;5768;51.476;7.210;2023-08-17T04:48:00;100566.00;;;21.50
11424;BMP180;5768;51.476;7.210;2023-08-17T04:53:02;100566.00;;;21.50
11424;BMP180;5768;51.476;7.210;2023-08-17T04:58:06;100567.00;;;21.50
11424;BMP180;5768;51.476;7.210;2023-08-17T05:03:08;100564.00;;;21.50
11424;BMP180;5768;51.476;7.210;2023-08-17T05:08:11;100568.00;;;21.60
11424;BMP180;5768;51.476;7.210;2023-08-17T05:13:16;100577.00;;;21.60
11424;BMP180;5768;51.476;7.210;2023-08-17T05:18:18;100574.00;;;21.70
11424;BMP180;5768;51.476;7.210;2023-08-17T05:23:21;100571.00;;;21.70
11424;BMP180;5768;51.476;7.210;2023-08-17T05:28:27;100580.00;;;21.70
11424;BMP180;5768;51.476;7.210;2023-08-17T05:33:29;100582.00;;;21.80
11424;BMP180;5768;51.476;7.210;2023-08-17T05:38:31;100583.00;;;21.80
11424;BMP180;5768;51.476;7.210;2023-08-17T05:43:35;100580.00;;;21.90
11424;BMP180;5768;51.476;7.210;2023-08-17T05:48:37;100589.00;;;21.90
11424;BMP180;5768;51.476;7.210;2023-08-17T05:53:40;100589.00;;;21.90
11424;BMP180;5768;51.476;7.210;2023-08-17T05:58:44;100586.00;;;21.90
11424;BMP180;5768;51.476;7.210;2023-08-17T06:03:46;100590.00;;;22.00
11424;BMP180;5768;51.476;7.210;2023-08-17T06:08:48;100589.00;;;22.00
11424;BMP180;5768;51.476;7.210;2023-08-17T06:13:52;100587.00;;;22.00
11424;BMP180;5768;51.476;7.210;2023-08-17T06:18:58;100587.00;;;22.10
11424;BMP180;5768;51.476;7.210;2023-08-17T06:24:03;100589.00;;;22.20
11424;BMP180;5768;51.476;7.210;2023-08-17T06:29:07;100592.00;;;22.10
11424;BMP180;5768;51.476;7.210;2023-08-17T06:34:09;100589.00;;;22.10
11424;BMP180;5768;51.476;7.210;2023-08-17T06:39:11;100601.00;;;22.20
11424;BMP180;5768;51.476;7.210;2023-08-17T06:44:15;100591.00;;;22.20
11424;BMP180;5768;51.476;7.210;2023-08-17T06:49:18;100599.00;;;22.30
11424;BMP180;5768;51.476;7.210;2023-08-17T06:54:20;100603.00;;;22.40
11424;BMP180;5768;51.476;7.210;2023-08-17T06:59:24;100607.00;;;22.60
11424;BMP180;5768;51.476;7.210;2023-08-17T07:04:26;100603.00;;;22.70
11424;BMP180;5768;51.476;7.210;2023-08-17T07:09:28;100606.00;;;22.80
11424;BMP180;5768;51.476;7.210;2023-08-17T07:14:32;100610.00;;;23.00
11424;BMP180;5768;51.476;7.210;2023-08-17T07:19:35;100615.00;;;23.00
11424;BMP180;5768;51.476;7.210;2023-08-17T07:24:37;100609.00;;;23.00
11424;BMP180;5768;51.476;7.210;2023-08-17T07:29:41;100615.00;;;23.00
11424;BMP180;5768;51.476;7.210;2023-08-17T07:34:43;100614.00;;;23.00
11424;BMP180;5768;51.476;7.210;2023-08-17T07:39:45;100611.00;;;23.00
11424;BMP180;5768;51.476;7.210;2023-08-17T07:44:49;100618.00;;;23.00
11424;BMP180;5768;51.476;7.210;2023-08-17T07:49:51;100624.00;;;23.10
11424;BMP180;5768;51.476;7.210;2023-08-17T07:54:54;100624.00;;;23.20
11424;BMP180;5768;51.476;7.210;2023-08-17T07:59:57;100630.00;;;23.30
11424;BMP180;5768;51.476;7.210;2023-08-17T08:05:00;100643.00;;;23.30
11424;BMP180;5768;51.476;7.210;2023-08-17T08:10:03;100641.00;;;23.30
11424;BMP180;5768;51.476;7.210;2023-08-17T08:15:08;100631.00;;;23.30
11424;BMP180;5768;51.476;7.210;2023-08-17T08:20:11;100645.00;;;23.20
11424;BMP180;5768;51.476;7.210;2023-08-17T08:25:14;100650.00;;;23.40
11424;BMP180;5768;51.476;7.210;2023-08-17T08:30:20;100648.00;;;23.50
11424;BMP180;5768;51.476;7.210;2023-08-17T08:35:22;100638.00;;;23.50
11424;BMP180;5768;51.476;7.210;2023-08-17T08:40:28;100636.00;;;23.50
11424;BMP180;5768;51.476;7.210;2023-08-17T08:45:35;100655.00;;;23.60
11424;BMP180;5768;51.476;7.210;2023-08-17T08:50:40;100652.00;;;23.90
11424;BMP180;5768;51.476;7.210;2023-08-17T08:55:49;100660.00;;;24.10
11424;BMP180;5768;51.476;7.210;2023-08-17T09:00:57;100655.00;;;24.30
11424;BMP180;5768;51.476;7.210;2023-08-17T09:06:00;100643.00;;;24.40
11424;BMP180;5768;51.476;7.210;2023-08-17T09:11:03;100636.00;;;24.50
11424;BMP180;5768;51.476;7.210;2023-08-17T09:16:06;100630.00;;;24.50
11424;BMP180;5768;51.476;7.210;2023-08-17T09:21:30;100621.00;;;24.60
11424;BMP180;5768;51.476;7.210;2023-08-17T09:26:33;100624.00;;;24.70
11424;BMP180;5768;51.476;7.210;2023-08-17T09:31:39;100624.00;;;24.70
11424;BMP180;5768;51.476;7.210;2023-08-17T09:36:45;100623.00;;;24.70
11424;BMP180;5768;51.476;7.210;2023-08-17T09:41:47;100631.00;;;24.80
11424;BMP180;5768;51.476;7.210;2023-08-17T09:46:51;100636.00;;;24.90
11424;BMP180;5768;51.476;7.210;2023-08-17T09:52:00;100637.00;;;24.90
11424;BMP180;5768;51.476;7.210;2023-08-17T09:57:04;100633.00;;;25.10
11424;BMP180;5768;51.476;7.210;2023-08-17T10:02:18;100634.00;;;25.20
11424;BMP180;5768;51.476;7.210;2023-08-17T10:07:27;100625.00;;;25.30
11424;BMP180;5768;51.476;7.210;2023-08-17T10:12:37;100628.00;;;25.60
11424;BMP180;5768;51.476;7.210;2023-08-17T10:18:00;100624.00;;;25.90
11424;BMP180;5768;51.476;7.210;2023-08-17T10:23:14;100623.00;;;25.90
11424;BMP180;5768;51.476;7.210;2023-08-17T10:28:18;100620.00;;;25.90
11424;BMP180;5768;51.476;7.210;2023-08-17T10:33:22;100617.00;;;26.00
11424;BMP180;5768;51.476;7.210;2023-08-17T10:38:25;100619.00;;;26.50
11424;BMP180;5768;51.476;7.210;2023-08-17T10:43:33;100625.00;;;26.80
11424;BMP180;5768;51.476;7.210;2023-08-17T10:48:37;100625.00;;;27.30
11424;BMP180;5768;51.476;7.210;2023-08-17T10:53:43;100617.00;;;27.60
11424;BMP180;5768;51.476;7.210;2023-08-17T10:58:46;100613.00;;;27.80
11424;BMP180;5768;51.476;7.210;2023-08-17T11:04:16;100620.00;;;27.80
11424;BMP180;5768;51.476;7.210;2023-08-17T11:09:22;100622.00;;;28.00
11424;BMP180;5768;51.476;7.210;2023-08-17T11:14:24;100618.00;;;28.30
11424;BMP180;5768;51.476;7.210;2023-08-17T11:19:28;100613.00;;;28.30
11424;BMP180;5768;51.476;7.210;2023-08-17T11:24:31;100618.00;;;28.10
11424;BMP180;5768;51.476;7.210;2023-08-17T11:29:34;100617.00;;;28.20
11424;BMP180;5768;51.476;7.210;2023-08-17T11:34:38;100614.00;;;28.50
11424;BMP180;5768;51.476;7.210;2023-08-17T11:39:40;100621.00;;;28.20
11424;BMP180;5768;51.476;7.210;2023-08-17T11:44:42;100616.00;;;27.70
11424;BMP180;5768;51.476;7.210;2023-08-17T11:49:49;100617.00;;;27.30
11424;BMP180;5768;51.476;7.210;2023-08-17T11:54:54;100618.00;;;26.90
11424;BMP180;5768;51.476;7.210;2023-08-17T11:59:58;100622.00;;;26.70
11424;BMP180;5768;51.476;7.210;2023-08-17T12:05:04;100626.00;;;26.60
11424;BMP180;5768;51.476;7.210;2023-08-17T12:10:10;100624.00;;;26.50
11424;BMP180;5768;51.476;7.210;2023-08-17T12:15:13;100623.00;;;26.20
11424;BMP180;5768;51.476;7.210;2023-08-17T12:20:18;100621.00;;;26.00
11424;BMP180;5768;51.476;7.210;2023-08-17T12:25:21;100628.00;;;25.80
11424;BMP180;5768;51.476;7.210;2023-08-17T12:30:27;100625.00;;;25.60
11424;BMP180;5768;51.476;7.210;2023-08-17T12:35:35;100621.00;;;25.80
11424;BMP180;5768;51.476;7.210;2023-08-17T12:40:38;100616.00;;;25.90
11424;BMP180;5768;51.476;7.210;2023-08-17T12:45:40;100618.00;;;26.20
11424;BMP180;5768;51.476;7.210;2023-08-17T12:50:44;100619.00;;;26.30
11424;BMP180;5768;51.476;7.210;2023-08-17T12:55:46;100614.00;;;26.20
11424;BMP180;5768;51.476;7.210;2023-08-17T13:00:49;100608.00;;;26.00
11424;BMP180;5768;51.476;7.210;2023-08-17T13:05:53;100616.00;;;26.10
11424;BMP180;5768;51.476;7.210;2023-08-17T13:10:57;100602.00;;;26.30
11424;BMP180;5768;51.476;7.210;2023-08-17T13:15:59;100604.00;;;26.70
11424;BMP180;5768;51.476;7.210;2023-08-17T13:21:03;100603.00;;;26.80
11424;BMP180;5768;51.476;7.210;2023-08-17T13:26:06;100613.00;;;26.80
11424;BMP180;5768;51.476;7.210;2023-08-17T13:31:08;100610.00;;;26.80
11424;BMP180;5768;51.476;7.210;2023-08-17T13:36:12;100615.00;;;26.70
11424;BMP180;5768;51.476;7.210;2023-08-17T13:41:14;100626.00;;;26.50
11424;BMP180;5768;51.476;7.210;2023-08-17T13:46:16;100618.00;;;26.30
11424;BMP180;5768;51.476;7.210;2023-08-17T13:51:20;100620.00;;;26.20
11424;BMP180;5768;51.476;7.210;2023-08-17T13:56:22;100616.00;;;26.00
11424;BMP180;5768;51.476;7.210;2023-08-17T14:01:28;100614.00;;;25.90
11424;BMP180;5768;51.476;7.210;2023-08-17T14:06:32;100614.00;;;25.70
11424;BMP180;5768;51.476;7.210;2023-08-17T14:11:35;100611.00;;;25.60
11424;BMP180;5768;51.476;7.210;2023-08-17T14:16:38;100618.00;;;25.40
11424;BMP180;5768;51.476;7.210;2023-08-17T14:21:41;100616.00;;;25.40
11424;BMP180;5768;51.476;7.210;2023-08-17T14:26:44;100604.00;;;25.40
11424;BMP180;5768;51.476;7.210;2023-08-17T14:31:50;100601.00;;;25.40
11424;BMP180;5768;51.476;7.210;2023-08-17T14:36:57;100591.00;;;25.40
11424;BMP180;5768;51.476;7.210;2023-08-17T14:42:00;100580.00;;;25.40
11424;BMP180;5768;51.476;7.210;2023-08-17T14:47:02;100587.00;;;25.50
11424;BMP180;5768;51.476;7.210;2023-08-17T14:52:08;100580.00;;;25.50
11424;BMP180;5768;51.476;7.210;2023-08-17T14:57:11;100571.00;;;25.50
11424;BMP180;5768;51.476;7.210;2023-08-17T15:02:16;100565.00;;;25.40
11424;BMP180;5768;51.476;7.210;2023-08-17T15:07:20;100566.00;;;25.30
11424;BMP180;5768;51.476;7.210;2023-08-17T15:12:23;100559.00;;;25.30
11424;BMP180;5768;51.476;7.210;2023-08-17T15:17:25;100547.00;;;25.40
11424;BMP180;5768;51.476;7.210;2023-08-17T15:22:32;100551.00;;;25.50
11424;BMP180;5768;51.476;7.210;2023-08-17T15:27:34;100553.00;;;25.60
11424;BMP180;5768;51.476;7.210;2023-08-17T15:32:37;100532.00;;;25.80
11424;BMP180;5768;51.476;7.210;2023-08-17T15:37:40;100549.00;;;26.00
11424;BMP180;5768;51.476;7.210;2023-08-17T15:42:43;100545.00;;;26.20
11424;BMP180;5768;51.476;7.210;2023-08-17T15:47:46;100545.00;;;26.20
11424;BMP180;5768;51.476;7.210;2023-08-17T15:52:50;100533.00;;;26.10
11424;BMP180;5768;51.476;7.210;2023-08-17T15:57:52;100533.00;;;26.10
11424;BMP180;5768;51.476;7.210;2023-08-17T16:02:55;100514.00;;;26.00
11424;BMP180;5768;51.476;7.210;2023-08-17T16:07:59;100497.00;;;26.00
11424;BMP180;5768;51.476;7.210;2023-08-17T16:13:01;100512.00;;;26.30
11424;BMP180;5768;51.476;7.210;2023-08-17T16:18:04;100511.00;;;26.50
11424;BMP180;5768;51.476;7.210;2023-08-17T16:23:08;100505.00;;;26.30
11424;BMP180;5768;51.476;7.210;2023-08-17T16:28:11;100510.00;;;26.10
11424;BMP180;5768;51.476;7.210;2023-08-17T16:33:13;100501.00;;;26.10
11424;BMP180;5768;51.476;7.210;2023-08-17T16:38:18;100495.00;;;25.90
11424;BMP180;5768;51.476;7.210;2023-08-17T16:43:20;100493.00;;;25.90
11424;BMP180;5768;51.476;7.210;2023-08-17T16:48:23;100484.00;;;25.80
11424;BMP180;5768;51.476;7.210;2023-08-17T16:53:27;100483.00;;;25.70
11424;BMP180;5768;51.476;7.210;2023-08-17T16:58:30;100482.00;;;25.80
11424;BMP180;5768;51.476;7.210;2023-08-17T17:03:32;100477.00;;;25.70
11424;BMP180;5768;51.476;7.210;2023-08-17T17:08:45;100484.00;;;25.40
11424;BMP180;5768;51.476;7.210;2023-08-17T17:13:47;100485.00;;;25.40
11424;BMP180;5768;51.476;7.210;2023-08-17T17:18:50;100488.00;;;25.40
11424;BMP180;5768;51.476;7.210;2023-08-17T17:23:54;100492.00;;;25.20
11424;BMP180;5768;51.476;7.210;2023-08-17T17:28:56;100500.00;;;25.10
11424;BMP180;5768;51.476;7.210;2023-08-17T17:33:59;100501.00;;;25.10
11424;BMP180;5768;51.476;7.210;2023-08-17T17:39:07;100503.00;;;25.00
11424;BMP180;5768;51.476;7.210;2023-08-17T17:44:10;100495.00;;;24.90
11424;BMP180;5768;51.476;7.210;2023-08-17T17:49:12;100501.00;;;24.90
11424;BMP180;5768;51.476;7.210;2023-08-17T17:54:16;100497.00;;;24.80
11424;BMP180;5768;51.476;7.210;2023-08-17T17:59:18;100514.00;;;24.80
11424;BMP180;5768;51.476;7.210;2023-08-17T18:04:21;100514.00;;;24.70
11424;BMP180;5768;51.476;7.210;2023-08-17T18:09:25;100523.00;;;24.60
11424;BMP180;5768;51.476;7.210;2023-08-17T18:14:28;100523.00;;;24.60
11424;BMP180;5768;51.476;7.210;2023-08-17T18:19:30;100513.00;;;24.50
11424;BMP180;5768;51.476;7.210;2023-08-17T18:24:34;100509.00;;;24.50
11424;BMP180;5768;51.476;7.210;2023-08-17T18:29:41;100509.00;;;24.40
11424;BMP180;5768;51.476;7.210;2023-08-17T18:34:44;100506.00;;;24.30
11424;BMP180;5768;51.476;7.210;2023-08-17T18:39:47;100505.00;;;24.30
11424;BMP180;5768;51.476;7.210;2023-08-17T18:44:50;100521.00;;;24.20
11424;BMP180;5768;51.476;7.210;2023-08-17T18:49:53;100512.00;;;24.20
11424;BMP180;5768;51.476;7.210;2023-08-17T18:55:01;100513.00;;;24.20
11424;BMP180;5768;51.476;7.210;2023-08-17T19:00:08;100517.00;;;24.10
11424;BMP180;5768;51.476;7.210;2023-08-17T19:05:14;100525.00;;;24.00
11424;BMP180;5768;51.476;7.210;2023-08-17T19:10:22;100521.00;;;23.90
11424;BMP180;5768;51.476;7.210;2023-08-17T19:15:24;100526.00;;;23.90
11424;BMP180;5768;51.476;7.210;2023-08-17T19:20:27;100543.00;;;23.80
11424;BMP180;5768;51.476;7.210;2023-08-17T19:25:31;100550.00;;;23.70
11424;BMP180;5768;51.476;7.210;2023-08-17T19:30:33;100553.00;;;23.60
11424;BMP180;5768;51.476;7.210;2023-08-17T19:35:36;100566.00;;;23.60
11424;BMP180;5768;51.476;7.210;2023-08-17T19:40:40;100554.00;;;23.60
11424;BMP180;5768;51.476;7.210;2023-08-17T19:45:45;100556.00;;;23.60
11424;BMP180;5768;51.476;7.210;2023-08-17T19:50:47;100538.00;;;23.60
11424;BMP180;5768;51.476;7.210;2023-08-17T19:55:56;100529.00;;;23.50
11424;BMP180;5768;51.476;7.210;2023-08-17T20:01:04;100525.00;;;23.40
11424;BMP180;5768;51.476;7.210;2023-08-17T20:06:07;100537.00;;;23.30
11424;BMP180;5768;51.476;7.210;2023-08-17T20:11:12;100535.00;;;23.30
11424;BMP180;5768;51.476;7.210;2023-08-17T20:16:15;100526.00;;;23.20
11424;BMP180;5768;51.476;7.210;2023-08-17T20:21:18;100528.00;;;23.10
11424;BMP180;5768;51.476;7.210;2023-08-17T20:26:22;100541.00;;;23.10
11424;BMP180;5768;51.476;7.210;2023-08-17T20:31:25;100544.00;;;23.10
11424;BMP180;5768;51.476;7.210;2023-08-17T20:36:29;100540.00;;;23.00
11424;BMP180;5768;51.476;7.210;2023-08-17T20:41:33;100536.00;;;23.00
11424;BMP180;5768;51.476;7.210;2023-08-17T20:46:35;100541.00;;;23.00
11424;BMP180;5768;51.476;7.210;2023-08-17T20:51:37;100553.00;;;23.00
11424;BMP180;5768;51.476;7.210;2023-08-17T20:56:41;100539.00;;;23.00
11424;BMP180;5768;51.476;7.210;2023-08-17T21:01:44;100549.00;;;23.00
11424;BMP180;5768;51.476;7.210;2023-08-17T21:06:47;100535.00;;;23.00
11424;BMP180;5768;51.476;7.210;2023-08-17T21:11:51;100550.00;;;22.90
11424;BMP180;5768;51.476;7.210;2023-08-17T21:16:54;100539.00;;;22.80
11424;BMP180;5768;51.476;7.210;2023-08-17T21:21:57;100547.00;;;22.80
11424;BMP180;5768;51.476;7.210;2023-08-17T21:27:00;100532.00;;;22.90
11424;BMP180;5768;51.476;7.210;2023-08-17T21:32:04;100537.00;;;22.90
11424;BMP180;5768;51.476;7.210;2023-08-17T21:37:07;100533.00;;;22.80
11424;BMP180;5768;51.476;7.210;2023-08-17T21:42:11;100516.00;;;22.80
11424;BMP180;5768;51.476;7.210;2023-08-17T21:47:14;100517.00;;;22.60
11424;BMP180;5768;51.476;7.210;2023-08-17T21:52:16;100520.00;;;22.50
11424;BMP180;5768;51.476;7.210;2023-08-17T21:57:20;100520.00;;;22.50
11424;BMP180;5768;51.476;7.210;2023-08-17T22:02:23;100523.00;;;22.50
11424;BMP180;5768;51.476;7.210;2023-08-17T22:07:25;100513.00;;;22.50
11424;BMP180;5768;51.476;7.210;2023-08-17T22:12:29;100514.00;;;22.40
11424;BMP180;5768;51.476;7.210;2023-08-17T22:17:32;100516.00;;;22.40
11424;BMP180;5768;51.476;7.210;2023-08-17T22:22:34;100516.00;;;22.30
11424;BMP180;5768;51.476;7.210;2023-08-17T22:27:38;100518.00;;;22.40
11424;BMP180;5768;51.476;7.210;2023-08-17T22:32:41;100518.00;;;22.40
11424;BMP180;5768;51.476;7.210;2023-08-17T22:37:43;100509.00;;;22.50
11424;BMP180;5768;51.476;7.210;2023-08-17T22:42:47;100522.00;;;22.50
11424;BMP180;5768;51.476;7.210;2023-08-17T22:47:50;100511.00;;;22.50
11424;BMP180;5768;51.476;7.210;2023-08-17T22:52:53;100510.00;;;22.60
11424;BMP180;5768;51.476;7.210;2023-08-17T22:57:57;100497.00;;;22.50
11424;BMP180;5768;51.476;7.210;2023-08-17T23:02:59;100490.00;;;22.50
11424;BMP180;5768;51.476;7.210;2023-08-17T23:08:02;100490.00;;;22.50
11424;BMP180;5768;51.476;7.210;2023-08-17T23:13:06;100484.00;;;22.50
11424;BMP180;5768;51.476;7.210;2023-08-17T23:18:12;100483.00;;;22.50
11424;BMP180;5768;51.476;7.210;2023-08-17T23:23:15;100481.00;;;22.50
11424;BMP180;5768;51.476;7.210;2023-08-17T23:28:19;100477.00;;;22.50
11424;BMP180;5768;51.476;7.210;2023-08-17T23:33:21;100480.00;;;22.50
11424;BMP180;5768;51.476;7.210;2023-08-17T23:38:24;100476.00;;;22.40
11424;BMP180;5768;51.476;7.210;2023-08-17T23:43:27;100477.00;;;22.40
11424;BMP180;5768;51.476;7.210;2023-08-17T23:48:30;100471.00;;;22.40
11424;BMP180;5768;51.476;7.210;2023-08-17T23:53:32;100469.00;;;22.30
11424;BMP180;5768;51.476;7.210;2023-08-17T23:58:36;100476.00;;;22.30
